Time;durP1;ratioP1;P1;durP2;ratioP2;P2;SDS_P1;SDS_P2;PMS_P1;PMS_P2;Temp;Humidity;BMP_temperature;BMP_pressure;BME280_temperature;BME280_humidity;BME280_pressure;Samples;Min_cycle;Max_cycle;Signal;HPM_P1;HPM_P2
2021/04/30 00:01:16;;;;;;;18.33;12.57;;;409.90;1817.60;;;;;;4974758;28;20499;-73
2021/04/30 00:03:42;;;;;;;20.73;13.35;;;409.90;1817.60;;;;;;4974460;28;20416;-74
2021/04/30 00:06:08;;;;;;;18.30;13.35;;;409.90;1817.60;;;;;;4974543;28;20031;-73
2021/04/30 00:08:33;;;;;;;17.58;13.13;;;409.90;1817.60;;;;;;4974461;28;20053;-74
2021/04/30 00:10:59;;;;;;;21.10;14.45;;;409.90;1817.60;;;;;;4974609;28;20058;-74
2021/04/30 00:13:26;;;;;;;17.92;13.55;;;409.90;1817.60;;;;;;4974881;28;20482;-73
2021/04/30 00:15:51;;;;;;;17.90;13.35;;;409.80;1817.60;;;;;;4974815;28;20047;-73
2021/04/30 00:18:17;;;;;;;20.00;13.95;;;409.80;1817.60;;;;;;4974388;28;20426;-74
2021/04/30 00:20:52;;;;;;;19.33;13.93;;;409.70;1817.60;;;;;;4977432;28;20031;-74
2021/04/30 00:23:18;;;;;;;18.48;13.23;;;409.80;1817.60;;;;;;4978358;28;20062;-74
2021/04/30 00:25:45;;;;;;;21.88;14.48;;;409.70;1817.60;;;;;;4978144;28;20034;-74
2021/04/30 00:28:12;;;;;;;20.35;15.30;;;409.70;1817.60;;;;;;4978199;28;20041;-72
2021/04/30 00:30:38;;;;;;;21.50;13.30;;;409.70;1817.60;;;;;;4978235;28;20110;-73
2021/04/30 00:33:04;;;;;;;22.60;14.00;;;409.70;1817.60;;;;;;4978140;28;20019;-74
2021/04/30 00:35:30;;;;;;;19.35;12.85;;;409.70;1817.60;;;;;;4977882;28;20018;-74
2021/04/30 00:37:55;;;;;;;17.30;12.63;;;409.70;1817.60;;;;;;4978120;28;20027;-74
2021/04/30 00:40:21;;;;;;;21.60;13.25;;;409.60;1817.60;;;;;;4977999;28;20058;-73
2021/04/30 00:42:53;;;;;;;21.17;14.18;;;409.60;1817.60;;;;;;4977942;28;20465;-73
2021/04/30 00:45:19;;;;;;;18.58;12.98;;;409.60;1817.60;;;;;;4977905;28;20038;-73
2021/04/30 00:47:46;;;;;;;17.70;12.55;;;409.60;1817.60;;;;;;4977681;28;20042;-74
2021/04/30 00:50:12;;;;;;;21.00;13.05;;;409.60;1817.60;;;;;;4977612;28;20033;-74
2021/04/30 00:52:38;;;;;;;18.38;12.93;;;409.60;1843.20;;;;;;4977588;28;20031;-74
2021/04/30 00:55:09;;;;;;;19.40;13.43;;;409.60;1817.60;;;;;;4977821;28;20033;-76
2021/04/30 00:57:36;;;;;;;17.83;12.95;;;384.90;1817.60;;;;;;4977674;28;20500;-74
2021/04/30 01:00:04;;;;;;;20.23;13.23;;;384.90;1817.60;;;;;;4977663;28;20038;-75
2021/04/30 01:02:29;;;;;;;21.95;13.75;;;384.90;1817.60;;;;;;4977528;28;20106;-76
2021/04/30 01:04:55;;;;;;;21.55;14.45;;;384.80;1817.60;;;;;;4977621;28;20402;-76
2021/04/30 01:07:21;;;;;;;19.27;13.68;;;384.80;1817.60;;;;;;4977659;28;20511;-75
2021/04/30 01:09:47;;;;;;;19.70;13.27;;;384.80;1817.60;;;;;;4977341;28;20022;-75
2021/04/30 01:12:13;;;;;;;19.67;13.57;;;384.80;1817.60;;;;;;4977548;28;20536;-75
2021/04/30 01:14:39;;;;;;;18.15;12.70;;;384.80;1817.60;;;;;;4977400;28;20023;-76
2021/04/30 01:17:05;;;;;;;19.98;13.57;;;384.80;1817.60;;;;;;4976881;28;20030;-76
2021/04/30 01:19:31;;;;;;;21.83;14.02;;;384.80;1817.60;;;;;;4976679;28;20381;-77
2021/04/30 01:21:58;;;;;;;18.27;13.25;;;384.70;1817.60;;;;;;4977240;28;20031;-71
2021/04/30 01:24:24;;;;;;;15.98;12.82;;;384.70;1817.60;;;;;;4977017;28;20054;-74
2021/04/30 01:26:51;;;;;;;19.10;14.07;;;384.70;1817.60;;;;;;4977140;28;20038;-71
2021/04/30 01:29:17;;;;;;;18.83;13.27;;;384.70;1817.60;;;;;;4976872;28;20414;-70
2021/04/30 01:31:44;;;;;;;20.55;14.50;;;384.70;1843.20;;;;;;4977104;28;20109;-70
2021/04/30 01:34:10;;;;;;;21.02;14.65;;;384.70;1817.60;;;;;;4977210;28;20110;-70
2021/04/30 01:36:37;;;;;;;18.15;13.52;;;384.70;1843.20;;;;;;4976688;28;20493;-75
2021/04/30 01:39:13;;;;;;;19.52;13.02;;;384.70;1843.20;;;;;;4976856;28;20034;-74
2021/04/30 01:41:41;;;;;;;22.38;13.25;;;384.70;1843.20;;;;;;4976978;28;20026;-74
2021/04/30 01:44:09;;;;;;;18.38;13.85;;;384.70;1843.20;;;;;;4976747;28;20400;-75
2021/04/30 01:46:36;;;;;;;20.23;13.23;;;384.60;1843.20;;;;;;4976542;28;20073;-75
2021/04/30 01:49:03;;;;;;;17.63;13.70;;;384.50;1843.20;;;;;;4976919;28;20050;-74
2021/04/30 01:51:29;;;;;;;19.00;14.93;;;384.50;1843.20;;;;;;4976426;28;20532;-74
2021/04/30 01:53:54;;;;;;;20.00;14.35;;;384.50;1843.20;;;;;;4976108;28;20031;-73
2021/04/30 01:56:20;;;;;;;19.92;15.32;;;384.50;1843.20;;;;;;4976486;28;20031;-72
2021/04/30 01:58:46;;;;;;;19.38;13.65;;;384.50;1843.20;;;;;;4976621;28;20031;-72
2021/04/30 02:01:12;;;;;;;22.77;12.85;;;384.40;1843.20;;;;;;4976312;28;20531;-72
2021/04/30 02:03:38;;;;;;;17.17;12.90;;;384.40;1843.20;;;;;;4976585;28;20492;-72
2021/04/30 02:06:05;;;;;;;20.00;14.35;;;384.40;1843.20;;;;;;4976391;28;20038;-73
2021/04/30 02:08:31;;;;;;;19.83;14.20;;;384.40;1843.20;;;;;;4976258;28;20026;-73
2021/04/30 02:10:56;;;;;;;20.30;15.02;;;384.40;1868.80;;;;;;4976054;28;20381;-73
2021/04/30 02:13:23;;;;;;;24.27;14.80;;;384.40;1843.20;;;;;;4976389;28;20034;-72
2021/04/30 02:15:54;;;;;;;17.77;13.95;;;384.40;1843.20;;;;;;4975876;28;20491;-70
2021/04/30 02:18:20;;;;;;;19.33;14.23;;;384.40;1843.20;;;;;;4976284;28;20023;-73
2021/04/30 02:20:46;;;;;;;17.65;13.77;;;384.40;1868.80;;;;;;4958679;28;20473;-76
2021/04/30 02:23:12;;;;;;;19.77;14.95;;;384.40;1868.80;;;;;;4975877;28;20037;-76
2021/04/30 02:25:39;;;;;;;17.55;13.23;;;384.30;1868.80;;;;;;4976048;28;20033;-77
2021/04/30 02:28:05;;;;;;;23.65;15.57;;;384.30;1868.80;;;;;;4976115;28;20027;-77
2021/04/30 02:30:34;;;;;;;21.27;15.50;;;384.40;1868.80;;;;;;4976030;28;20031;-78
2021/04/30 02:33:02;;;;;;;20.30;14.40;;;384.30;1868.80;;;;;;4975799;28;20038;-75
2021/04/30 02:35:35;;;;;;;24.95;15.18;;;384.40;1868.80;;;;;;4976099;28;20074;-75
2021/04/30 02:38:02;;;;;;;25.45;14.90;;;384.30;1843.20;;;;;;4975953;28;20031;-76
2021/04/30 02:40:29;;;;;;;22.55;14.73;;;384.30;1868.80;;;;;;4958361;28;20428;-77
2021/04/30 02:42:58;;;;;;;21.77;14.65;;;384.30;1868.80;;;;;;4975348;28;20552;-77
2021/04/30 02:45:24;;;;;;;20.52;14.70;;;384.30;1868.80;;;;;;4975718;28;20019;-77
2021/04/30 02:47:53;;;;;;;21.90;15.63;;;384.20;1868.80;;;;;;4975335;28;20105;-75
2021/04/30 02:50:22;;;;;;;22.42;15.52;;;384.20;1868.80;;;;;;4975444;28;20488;-74
2021/04/30 02:52:48;;;;;;;23.95;14.20;;;384.20;1868.80;;;;;;4941501;28;20050;-74
2021/04/30 02:55:17;;;;;;;21.73;14.38;;;384.20;1868.80;;;;;;4975011;28;20473;-74
2021/04/30 02:57:43;;;;;;;18.77;14.50;;;384.20;1868.80;;;;;;4975296;28;20030;-76
2021/04/30 03:00:10;;;;;;;21.75;13.98;;;384.10;1868.80;;;;;;4975556;28;20462;-77
2021/04/30 03:02:36;;;;;;;22.42;14.98;;;384.10;1868.80;;;;;;4975326;28;20146;-75
2021/04/30 03:05:03;;;;;;;22.35;14.95;;;384.10;1868.80;;;;;;4957704;28;20059;-75
2021/04/30 03:07:29;;;;;;;23.48;15.27;;;384.10;1868.80;;;;;;4975089;28;20473;-77
2021/04/30 03:09:55;;;;;;;21.23;15.18;;;384.10;1894.40;;;;;;4975095;28;20049;-75
2021/04/30 03:12:20;;;;;;;21.80;14.95;;;384.10;1894.40;;;;;;4975266;28;20031;-75
2021/04/30 03:14:46;;;;;;;20.08;14.43;;;384.10;1894.40;;;;;;4975249;28;20047;-74
2021/04/30 03:17:12;;;;;;;21.20;14.65;;;384.10;1894.40;;;;;;4974848;28;20058;-74
2021/04/30 03:19:38;;;;;;;21.33;14.40;;;384.10;1894.40;;;;;;4975062;28;20037;-74
2021/04/30 03:22:04;;;;;;;25.17;14.18;;;384.10;1894.40;;;;;;4975036;28;20436;-74
2021/04/30 03:24:29;;;;;;;21.67;15.05;;;384.10;1894.40;;;;;;4974947;28;20031;-73
2021/04/30 03:26:55;;;;;;;22.67;14.98;;;384.10;1894.40;;;;;;4974977;28;20039;-73
2021/04/30 03:29:21;;;;;;;27.17;14.23;;;384.10;1894.40;;;;;;4974992;28;20073;-75
2021/04/30 03:31:47;;;;;;;26.30;14.85;;;384.10;1894.40;;;;;;4974807;28;20054;-75
2021/04/30 03:34:12;;;;;;;22.73;15.32;;;384.10;1894.40;;;;;;4975018;28;20023;-74
2021/04/30 03:36:38;;;;;;;19.52;14.98;;;384.00;1894.40;;;;;;4974939;28;20461;-74
2021/04/30 03:39:07;;;;;;;26.30;14.88;;;384.10;1894.40;;;;;;4957653;28;20388;-74
2021/04/30 03:41:33;;;;;;;21.77;14.65;;;384.00;1894.40;;;;;;4974952;28;20117;-74
2021/04/30 03:43:59;;;;;;;20.10;14.25;;;384.00;1894.40;;;;;;4974768;28;20085;-74
2021/04/30 03:46:25;;;;;;;23.10;14.77;;;384.00;1894.40;;;;;;4973683;28;20055;-75
2021/04/30 03:48:51;;;;;;;21.95;15.00;;;384.00;1894.40;;;;;;4957378;28;20031;-74
2021/04/30 03:51:17;;;;;;;20.05;14.73;;;384.00;1894.40;;;;;;4974566;28;20022;-75
2021/04/30 03:53:42;;;;;;;24.67;15.38;;;384.00;1894.40;;;;;;4974805;28;20037;-75
2021/04/30 03:56:08;;;;;;;20.33;15.00;;;359.30;1894.40;;;;;;4978808;28;20054;-75
2021/04/30 03:58:34;;;;;;;23.08;15.45;;;359.30;1894.40;;;;;;4978886;28;20114;-75
2021/04/30 04:01:00;;;;;;;21.55;14.70;;;384.00;1894.40;;;;;;4985795;28;20022;-70
2021/04/30 04:03:25;;;;;;;23.77;14.77;;;359.30;1920.00;;;;;;4998028;28;20034;-74
2021/04/30 04:05:51;;;;;;;18.35;14.30;;;359.30;1920.00;;;;;;4980442;28;20026;-76
2021/04/30 04:08:17;;;;;;;21.08;14.95;;;359.30;1920.00;;;;;;4997703;28;20026;-74
2021/04/30 04:10:43;;;;;;;22.17;16.08;;;359.30;1920.00;;;;;;4998043;28;20022;-75
2021/04/30 04:13:36;;;;;;;26.90;16.67;;;359.30;1920.00;;;;;;4998162;28;20026;-77
2021/04/30 04:16:03;;;;;;;27.98;16.27;;;359.30;1920.00;;;;;;4995233;28;20091;-74
2021/04/30 04:18:29;;;;;;;24.23;16.23;;;359.30;1945.60;;;;;;4980615;28;20085;-74
2021/04/30 04:20:56;;;;;;;31.35;17.58;;;359.30;1920.00;;;;;;4997605;28;20109;-74
2021/04/30 04:23:21;;;;;;;29.10;17.27;;;359.30;1945.60;;;;;;4997567;28;20038;-74
2021/04/30 04:25:47;;;;;;;29.17;18.00;;;359.30;1945.60;;;;;;4997356;28;20384;-74
2021/04/30 04:28:13;;;;;;;23.75;15.48;;;384.00;1945.60;;;;;;4997272;28;20030;-76
2021/04/30 04:30:39;;;;;;;28.40;16.48;;;384.10;1920.00;;;;;;4997641;28;20027;-74
2021/04/30 04:33:05;;;;;;;27.17;16.98;;;384.10;1920.00;;;;;;4997519;28;20096;-74
2021/04/30 04:35:31;;;;;;;28.48;17.13;;;384.10;1945.60;;;;;;4997757;28;20030;-74
2021/04/30 04:37:57;;;;;;;31.77;16.95;;;384.20;1945.60;;;;;;4997462;28;20030;-74
2021/04/30 04:40:25;;;;;;;30.92;17.08;;;384.20;1945.60;;;;;;4997486;28;20023;-74
2021/04/30 04:42:51;;;;;;;31.42;16.90;;;384.20;1945.60;;;;;;4997463;28;20193;-75
2021/04/30 04:45:17;;;;;;;28.45;17.23;;;384.20;1945.60;;;;;;4997385;28;20023;-77
2021/04/30 04:47:43;;;;;;;23.17;16.08;;;384.30;1945.60;;;;;;4996946;28;20503;-76
2021/04/30 04:50:11;;;;;;;23.52;15.68;;;384.30;1945.60;;;;;;4996859;28;20037;-76
2021/04/30 04:52:38;;;;;;;26.75;15.88;;;384.30;1945.60;;;;;;4979251;28;20030;-78
2021/04/30 04:55:05;;;;;;;24.92;16.35;;;384.40;1945.60;;;;;;4996919;28;20399;-76
2021/04/30 04:57:57;;;;;;;30.10;16.13;;;384.30;1945.60;;;;;;4996565;28;20050;-76
2021/04/30 05:00:22;;;;;;;23.30;15.38;;;384.40;1945.60;;;;;;4996374;28;20114;-76
2021/04/30 05:02:48;;;;;;;26.15;15.73;;;384.30;1945.60;;;;;;4997157;28;20042;-76
2021/04/30 05:05:14;;;;;;;25.20;15.18;;;384.40;1945.60;;;;;;4996520;28;20036;-75
2021/04/30 05:07:40;;;;;;;22.63;15.27;;;384.40;1945.60;;;;;;4996758;28;20035;-78
2021/04/30 05:10:06;;;;;;;22.00;15.35;;;384.40;1945.60;;;;;;4996308;28;20061;-78
2021/04/30 05:12:32;;;;;;;30.85;15.10;;;384.40;1945.60;;;;;;4995920;28;20365;-80
2021/04/30 05:14:58;;;;;;;23.83;16.73;;;384.50;1971.20;;;;;;4979215;28;20033;-78
2021/04/30 05:17:23;;;;;;;22.52;15.90;;;384.50;1945.60;;;;;;4996349;28;20026;-78
2021/04/30 05:19:49;;;;;;;26.67;17.42;;;384.50;1971.20;;;;;;4996791;28;20034;-75
2021/04/30 05:22:15;;;;;;;26.27;16.50;;;384.70;1971.20;;;;;;4996597;28;20030;-77
2021/04/30 05:24:42;;;;;;;23.08;16.88;;;384.70;1945.60;;;;;;4996416;28;20038;-77
2021/04/30 05:27:12;;;;;;;29.13;17.25;;;384.70;1971.20;;;;;;4996388;28;20034;-77
2021/04/30 05:29:44;;;;;;;26.42;17.30;;;384.80;1971.20;;;;;;4996229;28;20110;-77
2021/04/30 05:32:11;;;;;;;29.90;17.45;;;384.80;1971.20;;;;;;4996556;28;20377;-77
2021/04/30 05:34:38;;;;;;;29.17;16.85;;;384.90;1971.20;;;;;;4979465;28;20492;-77
2021/04/30 05:37:04;;;;;;;25.50;17.33;;;409.60;1996.80;;;;;;4979910;28;20022;-78
2021/04/30 05:39:31;;;;;;;28.80;17.00;;;409.70;1996.80;;;;;;4996205;28;20028;-77
2021/04/30 05:41:57;;;;;;;31.63;17.52;;;409.70;2022.40;;;;;;4996188;28;20022;-77
2021/04/30 05:44:23;;;;;;;30.48;18.42;;;409.90;2022.40;;;;;;4996488;28;20026;-78
2021/04/30 05:46:49;;;;;;;23.48;17.77;;;410.00;2022.40;;;;;;4995836;28;20169;-78
2021/04/30 05:49:14;;;;;;;26.13;17.95;;;410.00;2048.00;;;;;;4996269;28;20029;-77
2021/04/30 05:51:40;;;;;;;24.83;16.27;;;410.10;2022.40;;;;;;4995981;28;20029;-76
2021/04/30 05:54:06;;;;;;;25.83;17.67;;;410.10;2022.40;;;;;;4996028;28;20022;-77
2021/04/30 05:56:32;;;;;;;32.25;17.52;;;410.30;2048.00;;;;;;4996164;28;20119;-76
2021/04/30 05:58:58;;;;;;;24.70;17.83;;;410.30;2048.00;;;;;;4996040;28;20022;-76
2021/04/30 06:01:24;;;;;;;25.73;17.92;;;410.40;2048.00;;;;;;4995558;28;20504;-74
2021/04/30 06:03:50;;;;;;;27.35;17.70;;;435.20;2048.00;;;;;;4977329;28;20066;-76
2021/04/30 06:06:16;;;;;;;27.25;17.63;;;435.30;2073.60;;;;;;4958805;28;20061;-77
2021/04/30 06:08:42;;;;;;;32.80;18.48;;;435.30;2048.00;;;;;;4975892;28;20035;-75
2021/04/30 06:11:07;;;;;;;28.23;17.83;;;435.50;2073.60;;;;;;4975975;28;20027;-77
2021/04/30 06:13:33;;;;;;;27.25;18.05;;;435.60;2073.60;;;;;;4975133;28;20042;-78
2021/04/30 06:15:59;;;;;;;29.70;18.55;;;435.70;2073.60;;;;;;4975545;28;20027;-79
2021/04/30 06:18:24;;;;;;;24.48;17.13;;;435.90;2073.60;;;;;;4975366;28;20114;-79
2021/04/30 06:20:50;;;;;;;25.63;18.17;;;436.00;2073.60;;;;;;4958731;28;20477;-78
2021/04/30 06:23:16;;;;;;;27.90;17.05;;;436.10;2048.00;;;;;;4957771;28;20529;-74
2021/04/30 06:25:42;;;;;;;23.02;16.25;;;460.90;2022.40;;;;;;4975473;28;20035;-75
2021/04/30 06:28:08;;;;;;;23.95;16.80;;;461.00;2022.40;;;;;;4958667;28;20429;-75
2021/04/30 06:30:33;;;;;;;24.23;17.30;;;461.20;2022.40;;;;;;4975744;28;20469;-75
2021/04/30 06:32:59;;;;;;;23.67;17.40;;;461.30;1996.80;;;;;;4976094;28;20030;-74
2021/04/30 06:35:26;;;;;;;24.40;16.98;;;461.50;1996.80;;;;;;4958000;28;20038;-77
2021/04/30 06:37:52;;;;;;;29.25;15.52;;;461.70;1971.20;;;;;;4975908;28;20057;-74
2021/04/30 06:40:18;;;;;;;31.88;16.75;;;486.50;1945.60;;;;;;4975398;28;20053;-74
2021/04/30 06:42:44;;;;;;;21.77;16.38;;;486.60;1894.40;;;;;;4986710;28;20437;-73
2021/04/30 06:45:09;;;;;;;31.30;17.75;;;486.80;1894.40;;;;;;4991274;28;20031;-73
2021/04/30 06:47:36;;;;;;;25.92;16.67;;;486.90;1868.80;;;;;;4956993;28;20126;-74
2021/04/30 06:50:03;;;;;;;26.67;17.42;;;487.10;1868.80;;;;;;4965578;28;20408;-78
2021/04/30 06:52:28;;;;;;;23.73;17.20;;;487.30;1868.80;;;;;;4957194;28;20031;-73
2021/04/30 06:54:54;;;;;;;26.55;17.70;;;512.10;1817.60;;;;;;4974679;28;20102;-73
2021/04/30 06:57:20;;;;;;;27.30;17.08;;;512.40;1817.60;;;;;;4975060;28;20023;-73
2021/04/30 06:59:46;;;;;;;25.00;18.23;;;512.50;1792.00;;;;;;4974043;28;20105;-73
2021/04/30 07:02:11;;;;;;;22.25;16.13;;;512.80;1766.40;;;;;;4974754;28;20031;-74
2021/04/30 07:04:38;;;;;;;27.50;15.70;;;537.60;1740.80;;;;;;4974504;28;20378;-71
2021/04/30 07:07:04;;;;;;;23.35;14.90;;;537.90;1715.20;;;;;;4970297;28;20500;-72
2021/04/30 07:09:30;;;;;;;26.73;15.63;;;538.20;1715.20;;;;;;4974109;28;20034;-72
2021/04/30 07:11:56;;;;;;;19.05;14.55;;;538.40;1689.60;;;;;;4973902;28;20027;-73
2021/04/30 07:14:22;;;;;;;23.48;14.55;;;563.30;1715.20;;;;;;4972881;28;20492;-74
2021/04/30 07:16:47;;;;;;;27.02;15.57;;;563.50;1664.00;;;;;;4974093;28;20162;-75
2021/04/30 07:19:13;;;;;;;21.58;14.57;;;563.70;1638.40;;;;;;4974454;28;20030;-73
2021/04/30 07:21:39;;;;;;;20.83;12.07;;;563.90;1612.80;;;;;;4974417;28;20030;-71
2021/04/30 07:24:05;;;;;;;21.55;13.40;;;588.80;1587.20;;;;;;4974344;28;20018;-72
2021/04/30 07:26:31;;;;;;;18.25;11.07;;;588.90;1561.60;;;;;;4954772;28;20045;-73
2021/04/30 07:28:57;;;;;;;12.98;7.93;;;589.30;1536.00;;;;;;4937068;29;20039;-72
2021/04/30 07:31:24;;;;;;;17.00;8.40;;;589.50;1510.40;;;;;;4955102;29;20474;-72
2021/04/30 07:33:49;;;;;;;18.38;7.60;;;614.40;1510.40;;;;;;4955267;29;20023;-71
2021/04/30 07:36:16;;;;;;;15.27;6.70;;;614.60;1484.80;;;;;;4954909;29;20024;-72
2021/04/30 07:38:43;;;;;;;11.52;6.55;;;614.80;1459.20;;;;;;4954876;28;20556;-72
2021/04/30 07:41:09;;;;;;;15.10;6.22;;;615.00;1408.00;;;;;;4954983;29;20031;-74
2021/04/30 07:43:35;;;;;;;79.63;10.73;;;615.10;1382.40;;;;;;4954809;29;20031;-71
2021/04/30 07:46:01;;;;;;;39.25;6.53;;;615.30;1356.80;;;;;;4959500;28;20042;-72
2021/04/30 07:48:28;;;;;;;31.00;5.78;;;640.00;1305.60;;;;;;4974459;28;20026;-72
2021/04/30 07:50:53;;;;;;;25.15;5.35;;;640.20;1254.40;;;;;;4974217;28;20417;-71
2021/04/30 07:53:19;;;;;;;19.25;3.75;;;640.30;1203.20;;;;;;4973720;28;20037;-74
2021/04/30 07:55:45;;;;;;;32.35;7.30;;;640.50;1177.60;;;;;;4974203;28;20453;-71
2021/04/30 07:58:11;;;;;;;14.60;5.57;;;640.70;1152.00;;;;;;4956660;28;20125;-71
2021/04/30 08:00:36;;;;;;;9.05;4.57;;;640.80;1100.80;;;;;;4973197;28;20039;-71
2021/04/30 08:03:02;;;;;;;8.32;3.08;;;665.60;1100.80;;;;;;4974226;28;20026;-71
2021/04/30 08:05:28;;;;;;;16.73;4.18;;;665.90;1100.80;;;;;;4973989;28;20073;-72
2021/04/30 08:07:54;;;;;;;10.48;3.95;;;666.00;1100.80;;;;;;4974091;28;20035;-72
2021/04/30 08:10:20;;;;;;;7.90;3.58;;;666.10;1075.20;;;;;;4974119;28;20077;-71
2021/04/30 08:12:47;;;;;;;12.52;2.72;;;666.30;1075.20;;;;;;4973882;28;20500;-73
2021/04/30 08:15:14;;;;;;;11.27;3.45;;;666.50;1075.20;;;;;;4973836;28;20033;-71
2021/04/30 08:17:40;;;;;;;11.80;2.70;;;691.20;1075.20;;;;;;4974198;28;20362;-71
2021/04/30 08:20:08;;;;;;;9.70;3.88;;;691.30;1049.60;;;;;;4973867;28;20110;-71
2021/04/30 08:22:34;;;;;;;12.70;3.22;;;691.40;1049.60;;;;;;4973981;28;20086;-70
2021/04/30 08:25:00;;;;;;;12.35;3.33;;;691.40;998.40;;;;;;4973926;28;20502;-71
2021/04/30 08:27:27;;;;;;;12.60;4.93;;;691.50;998.40;;;;;;4974162;28;20130;-73
2021/04/30 08:29:52;;;;;;;17.55;5.35;;;691.60;998.40;;;;;;4973902;28;20050;-73
2021/04/30 08:32:18;;;;;;;16.45;4.55;;;691.70;972.80;;;;;;4973963;28;20062;-74
2021/04/30 08:34:45;;;;;;;11.95;4.63;;;691.70;998.40;;;;;;4973436;28;20031;-73
2021/04/30 08:37:12;;;;;;;10.10;3.58;;;691.80;998.40;;;;;;4974031;28;20023;-73
2021/04/30 08:39:38;;;;;;;7.38;3.10;;;691.80;998.40;;;;;;4974184;28;20027;-73
2021/04/30 08:42:04;;;;;;;12.68;2.70;;;691.90;998.40;;;;;;4977236;28;20027;-74
2021/04/30 08:44:30;;;;;;;14.60;2.97;;;691.90;972.80;;;;;;4977404;28;20030;-73
2021/04/30 08:46:56;;;;;;;10.52;3.72;;;692.00;998.40;;;;;;4976903;28;20078;-73
2021/04/30 08:49:22;;;;;;;9.98;3.20;;;692.00;998.40;;;;;;4977076;28;20376;-73
2021/04/30 08:51:47;;;;;;;10.63;3.28;;;716.80;998.40;;;;;;4977310;28;20449;-74
2021/04/30 08:54:16;;;;;;;8.77;3.42;;;716.90;998.40;;;;;;4977167;28;20026;-74
2021/04/30 08:56:48;;;;;;;8.15;3.17;;;717.00;972.80;;;;;;4977273;28;20023;-74
2021/04/30 08:59:14;;;;;;;7.00;2.85;;;717.20;972.80;;;;;;4975488;28;20031;-75
2021/04/30 09:01:41;;;;;;;6.25;2.75;;;717.30;947.20;;;;;;4977482;28;20026;-73
2021/04/30 09:04:07;;;;;;;4.75;1.90;;;717.40;921.60;;;;;;4977629;28;20022;-74
2021/04/30 09:06:39;;;;;;;4.93;1.98;;;717.50;921.60;;;;;;4976996;28;20035;-74
2021/04/30 09:09:07;;;;;;;9.65;3.72;;;717.60;921.60;;;;;;4977239;28;20030;-74
2021/04/30 09:11:34;;;;;;;9.05;3.40;;;717.60;896.00;;;;;;4977457;28;20035;-74
2021/04/30 09:14:19;;;;;;;38.10;6.72;;;717.50;896.00;;;;;;4977381;28;20027;-75
2021/04/30 09:16:58;;;;;;;38.70;6.00;;;717.30;947.20;;;;;;4977420;28;20030;-78
2021/04/30 09:19:30;;;;;;;28.67;5.90;;;717.30;921.60;;;;;;4977267;28;20496;-69
2021/04/30 09:22:09;;;;;;;36.13;6.63;;;717.20;947.20;;;;;;4977389;28;20027;-73
2021/04/30 09:24:36;;;;;;;17.83;3.55;;;717.10;972.80;;;;;;4977141;28;20019;-73
2021/04/30 09:27:04;;;;;;;40.80;5.57;;;716.90;947.20;;;;;;4977064;28;20042;-74
2021/04/30 09:29:32;;;;;;;12.80;4.05;;;716.80;947.20;;;;;;4976950;28;20034;-74
2021/04/30 09:31:59;;;;;;;7.78;2.95;;;716.80;921.60;;;;;;4977089;28;20031;-73
2021/04/30 09:34:31;;;;;;;12.75;3.35;;;692.10;921.60;;;;;;4977104;28;20027;-74
2021/04/30 09:37:02;;;;;;;9.48;3.10;;;692.00;896.00;;;;;;4959738;28;20500;-74
2021/04/30 09:39:29;;;;;;;8.60;2.70;;;692.00;921.60;;;;;;4976576;28;20078;-73
2021/04/30 09:42:13;;;;;;;8.10;3.10;;;692.00;921.60;;;;;;4976799;28;20062;-74
2021/04/30 09:44:41;;;;;;;9.35;2.63;;;691.90;947.20;;;;;;4959493;28;20049;-74
2021/04/30 09:47:15;;;;;;;11.07;2.58;;;691.90;947.20;;;;;;4976423;28;20137;-74
2021/04/30 09:49:42;;;;;;;9.43;3.03;;;691.90;947.20;;;;;;4976596;28;20050;-74
2021/04/30 09:52:08;;;;;;;8.13;2.65;;;691.80;947.20;;;;;;4976487;28;20031;-74
2021/04/30 09:54:35;;;;;;;8.98;2.72;;;691.70;947.20;;;;;;4976464;28;20018;-74
2021/04/30 09:57:22;;;;;;;12.95;3.55;;;691.80;947.20;;;;;;4976537;28;20491;-74
2021/04/30 10:00:04;;;;;;;13.57;6.35;;;691.90;972.80;;;;;;4976346;28;20023;-74
2021/04/30 10:02:32;;;;;;;12.88;3.60;;;692.00;947.20;;;;;;4976580;28;20081;-73
2021/04/30 10:05:21;;;;;;;10.75;3.10;;;691.90;947.20;;;;;;4976477;28;20085;-73
2021/04/30 10:07:47;;;;;;;20.95;3.08;;;691.70;947.20;;;;;;4976345;28;20117;-73
2021/04/30 10:10:14;;;;;;;15.77;4.32;;;691.50;947.20;;;;;;4976387;28;20061;-73
2021/04/30 10:12:55;;;;;;;12.80;3.90;;;691.40;972.80;;;;;;4976232;28;20038;-73
2021/04/30 10:15:21;;;;;;;13.35;3.20;;;691.30;972.80;;;;;;4976035;28;20050;-73
2021/04/30 10:17:48;;;;;;;17.00;4.60;;;691.20;998.40;;;;;;4976064;28;20026;-73
2021/04/30 10:20:16;;;;;;;6.80;2.90;;;691.20;972.80;;;;;;4975099;28;20031;-73
2021/04/30 10:22:44;;;;;;;12.20;2.95;;;666.40;972.80;;;;;;4975740;28;20441;-73
2021/04/30 10:25:17;;;;;;;11.10;4.30;;;666.40;972.80;;;;;;4975660;28;20042;-73
2021/04/30 10:27:45;;;;;;;12.13;3.47;;;666.40;972.80;;;;;;4975675;28;20563;-73
2021/04/30 10:30:33;;;;;;;6.68;2.75;;;666.30;972.80;;;;;;4976034;28;20268;-73
2021/04/30 10:33:20;;;;;;;9.50;2.70;;;666.40;972.80;;;;;;4975376;28;20038;-73
2021/04/30 10:36:19;;;;;;;8.77;2.95;;;666.40;972.80;;;;;;4975834;28;20038;-73
2021/04/30 10:38:51;;;;;;;8.85;3.25;;;666.50;947.20;;;;;;4975536;28;20488;-73
2021/04/30 10:41:48;;;;;;;10.23;4.47;;;666.40;947.20;;;;;;4975486;28;20031;-73
2021/04/30 10:44:26;;;;;;;10.82;3.67;;;666.50;947.20;;;;;;4897154;28;20173;-73
2021/04/30 10:47:12;;;;;;;5.07;2.65;;;691.20;947.20;;;;;;4896921;29;20057;-73
2021/04/30 10:49:39;;;;;;;5.65;3.35;;;691.20;947.20;;;;;;4841395;29;20034;-73
2021/04/30 10:52:08;;;;;;;8.48;3.03;;;691.40;921.60;;;;;;4841518;29;20431;-73
2021/04/30 10:54:34;;;;;;;5.38;2.55;;;691.50;947.20;;;;;;4841297;29;20385;-73
2021/04/30 10:57:14;;;;;;;28.98;5.00;;;691.80;947.20;;;;;;4841208;29;20034;-73
2021/04/30 10:59:39;;;;;;;12.93;3.15;;;691.80;972.80;;;;;;4841361;29;20038;-73
2021/04/30 11:02:26;;;;;;;9.40;3.33;;;691.80;947.20;;;;;;4841188;29;20496;-73
2021/04/30 11:05:06;;;;;;;10.45;2.30;;;691.90;921.60;;;;;;4841251;29;20183;-78
2021/04/30 11:07:45;;;;;;;6.82;2.30;;;691.90;896.00;;;;;;4841111;29;20065;-78
2021/04/30 11:10:23;;;;;;;6.90;3.25;;;691.90;896.00;;;;;;4841183;29;20113;-77
2021/04/30 11:13:07;;;;;;;9.65;3.50;;;691.90;896.00;;;;;;4841268;29;20171;-78
2021/04/30 11:15:47;;;;;;;8.48;3.30;;;691.90;921.60;;;;;;4840903;29;20083;-78
2021/04/30 11:18:17;;;;;;;6.72;2.38;;;691.80;896.00;;;;;;4841804;29;20089;-80
2021/04/30 11:20:43;;;;;;;29.95;3.80;;;691.70;921.60;;;;;;4886568;29;20498;-81
2021/04/30 11:26:12;;;;;;;4.25;1.90;;;691.60;921.60;;;;;;4938456;28;20054;-82
2021/04/30 11:28:38;;;;;;;9.07;1.80;;;691.50;921.60;;;;;;4993536;28;20031;-75
2021/04/30 11:31:11;;;;;;;6.22;1.83;;;691.60;947.20;;;;;;4994179;28;20465;-84
2021/04/30 11:33:42;;;;;;;4.25;1.77;;;691.50;921.60;;;;;;4994360;28;20030;-82
2021/04/30 11:36:11;;;;;;;17.38;3.30;;;691.50;921.60;;;;;;4994159;28;20022;-81
2021/04/30 11:38:41;;;;;;;13.80;2.83;;;691.50;921.60;;;;;;4963698;28;20042;-83
2021/04/30 11:41:09;;;;;;;8.40;2.30;;;691.40;947.20;;;;;;4976835;28;20022;-84
2021/04/30 11:43:35;;;;;;;18.85;3.00;;;691.40;921.60;;;;;;4988431;28;20015;-82
2021/04/30 11:46:01;;;;;;;32.25;4.35;;;691.40;947.20;;;;;;4975916;28;20065;-83
2021/04/30 11:48:29;;;;;;;24.90;4.00;;;691.50;947.20;;;;;;4994174;28;20030;-80
2021/04/30 11:50:59;;;;;;;42.78;5.03;;;691.50;972.80;;;;;;4994277;28;20432;-78
2021/04/30 11:53:25;;;;;;;33.72;3.92;;;691.50;972.80;;;;;;4993950;28;20544;-79
2021/04/30 11:55:52;;;;;;;19.65;2.90;;;691.50;947.20;;;;;;4993291;28;20138;-80
2021/04/30 11:58:37;;;;;;;20.27;3.03;;;691.50;921.60;;;;;;4994335;28;20080;-78
2021/04/30 12:01:04;;;;;;;4.85;1.55;;;691.60;921.60;;;;;;4994150;28;20033;-79
2021/04/30 12:03:47;;;;;;;6.18;1.80;;;691.60;896.00;;;;;;4994250;28;20037;-77
2021/04/30 12:06:18;;;;;;;10.85;2.58;;;691.70;896.00;;;;;;4993498;28;20018;-80
2021/04/30 12:08:45;;;;;;;4.45;1.73;;;691.60;921.60;;;;;;4971854;28;20041;-78
2021/04/30 12:11:33;;;;;;;5.85;1.85;;;691.60;921.60;;;;;;4992924;28;20031;-75
2021/04/30 12:14:03;;;;;;;4.18;2.20;;;691.70;947.20;;;;;;4992934;28;20023;-81